sensor_id;sensor_type;location;lat;lon;timestamp;P1;durP1;ratioP1;P2;durP2;ratioP2
13866;SDS011;7003;46.982;15.248;2023-10-19T00:00:57;11.37;;;9.63;;
13866;SDS011;7003;46.982;15.248;2023-10-19T00:03:28;13.07;;;10.17;;
13866;SDS011;7003;46.982;15.248;2023-10-19T00:05:55;10.13;;;8.43;;
13866;SDS011;7003;46.982;15.248;2023-10-19T00:08:22;12.97;;;8.87;;
13866;SDS011;7003;46.982;15.248;2023-10-19T00:10:51;12.70;;;8.90;;
13866;SDS011;7003;46.982;15.248;2023-10-19T00:13:28;9.93;;;7.77;;
13866;SDS011;7003;46.982;15.248;2023-10-19T00:15:56;10.90;;;8.33;;
13866;SDS011;7003;46.982;15.248;2023-10-19T00:18:25;12.03;;;8.90;;
13866;SDS011;7003;46.982;15.248;2023-10-19T00:20:53;13.53;;;8.77;;
13866;SDS011;7003;46.982;15.248;2023-10-19T00:23:25;10.97;;;7.10;;
13866;SDS011;7003;46.982;15.248;2023-10-19T00:25:59;9.60;;;7.83;;
13866;SDS011;7003;46.982;15.248;2023-10-19T00:28:31;7.30;;;6.53;;
13866;SDS011;7003;46.982;15.248;2023-10-19T00:31:03;13.50;;;9.40;;
13866;SDS011;7003;46.982;15.248;2023-10-19T00:33:33;8.97;;;7.80;;
13866;SDS011;7003;46.982;15.248;2023-10-19T00:36:04;11.53;;;8.63;;
13866;SDS011;7003;46.982;15.248;2023-10-19T00:38:33;9.93;;;7.60;;
13866;SDS011;7003;46.982;15.248;2023-10-19T00:41:09;8.77;;;7.47;;
13866;SDS011;7003;46.982;15.248;2023-10-19T00:43:44;11.70;;;9.10;;
13866;SDS011;7003;46.982;15.248;2023-10-19T00:46:12;9.50;;;8.27;;
13866;SDS011;7003;46.982;15.248;2023-10-19T00:48:47;10.87;;;7.63;;
13866;SDS011;7003;46.982;15.248;2023-10-19T00:51:18;10.27;;;7.03;;
13866;SDS011;7003;46.982;15.248;2023-10-19T00:54:07;9.87;;;7.07;;
13866;SDS011;7003;46.982;15.248;2023-10-19T00:56:40;10.53;;;8.63;;
13866;SDS011;7003;46.982;15.248;2023-10-19T00:59:13;10.80;;;8.60;;
13866;SDS011;7003;46.982;15.248;2023-10-19T01:01:46;9.60;;;8.60;;
13866;SDS011;7003;46.982;15.248;2023-10-19T01:04:19;10.40;;;8.57;;
13866;SDS011;7003;46.982;15.248;2023-10-19T01:06:48;11.30;;;9.10;;
13866;SDS011;7003;46.982;15.248;2023-10-19T01:09:27;13.77;;;10.27;;
13866;SDS011;7003;46.982;15.248;2023-10-19T01:11:56;14.07;;;10.03;;
13866;SDS011;7003;46.982;15.248;2023-10-19T01:14:27;9.03;;;8.07;;
13866;SDS011;7003;46.982;15.248;2023-10-19T01:16:55;11.03;;;8.03;;
13866;SDS011;7003;46.982;15.248;2023-10-19T01:19:22;10.97;;;8.07;;
13866;SDS011;7003;46.982;15.248;2023-10-19T01:21:54;9.57;;;7.60;;
13866;SDS011;7003;46.982;15.248;2023-10-19T01:24:28;10.83;;;8.53;;
13866;SDS011;7003;46.982;15.248;2023-10-19T01:27:06;9.50;;;7.03;;
13866;SDS011;7003;46.982;15.248;2023-10-19T01:29:37;11.57;;;7.90;;
13866;SDS011;7003;46.982;15.248;2023-10-19T01:32:07;10.93;;;9.80;;
13866;SDS011;7003;46.982;15.248;2023-10-19T01:34:35;12.17;;;8.30;;
13866;SDS011;7003;46.982;15.248;2023-10-19T01:37:04;9.17;;;8.03;;
13866;SDS011;7003;46.982;15.248;2023-10-19T01:39:32;13.23;;;9.57;;
13866;SDS011;7003;46.982;15.248;2023-10-19T01:42:01;12.07;;;8.60;;
13866;SDS011;7003;46.982;15.248;2023-10-19T01:44:31;12.27;;;8.23;;
13866;SDS011;7003;46.982;15.248;2023-10-19T01:47:03;12.03;;;9.37;;
13866;SDS011;7003;46.982;15.248;2023-10-19T01:49:31;10.73;;;8.90;;
13866;SDS011;7003;46.982;15.248;2023-10-19T01:51:57;13.23;;;9.50;;
13866;SDS011;7003;46.982;15.248;2023-10-19T01:54:32;13.73;;;10.33;;
13866;SDS011;7003;46.982;15.248;2023-10-19T01:57:03;13.43;;;11.17;;
13866;SDS011;7003;46.982;15.248;2023-10-19T01:59:30;10.67;;;7.90;;
13866;SDS011;7003;46.982;15.248;2023-10-19T02:01:57;10.57;;;9.53;;
13866;SDS011;7003;46.982;15.248;2023-10-19T02:04:25;13.57;;;10.27;;
13866;SDS011;7003;46.982;15.248;2023-10-19T02:06:52;11.07;;;8.10;;
13866;SDS011;7003;46.982;15.248;2023-10-19T02:09:20;12.70;;;10.20;;
13866;SDS011;7003;46.982;15.248;2023-10-19T02:11:53;11.63;;;9.63;;
13866;SDS011;7003;46.982;15.248;2023-10-19T02:14:23;10.70;;;8.13;;
13866;SDS011;7003;46.982;15.248;2023-10-19T02:16:52;9.67;;;7.37;;
13866;SDS011;7003;46.982;15.248;2023-10-19T02:19:24;9.80;;;7.53;;
13866;SDS011;7003;46.982;15.248;2023-10-19T02:21:52;12.43;;;8.73;;
13866;SDS011;7003;46.982;15.248;2023-10-19T02:24:24;10.93;;;8.03;;
13866;SDS011;7003;46.982;15.248;2023-10-19T02:26:55;12.67;;;8.23;;
13866;SDS011;7003;46.982;15.248;2023-10-19T02:29:25;9.07;;;7.80;;
13866;SDS011;7003;46.982;15.248;2023-10-19T02:31:53;13.30;;;10.23;;
13866;SDS011;7003;46.982;15.248;2023-10-19T02:34:20;12.80;;;9.07;;
13866;SDS011;7003;46.982;15.248;2023-10-19T02:36:48;13.73;;;9.43;;
13866;SDS011;7003;46.982;15.248;2023-10-19T02:39:14;10.73;;;8.77;;
13866;SDS011;7003;46.982;15.248;2023-10-19T02:41:44;9.43;;;8.43;;
13866;SDS011;7003;46.982;15.248;2023-10-19T02:44:15;11.33;;;8.97;;
13866;SDS011;7003;46.982;15.248;2023-10-19T02:46:48;16.20;;;10.00;;
13866;SDS011;7003;46.982;15.248;2023-10-19T02:49:16;15.10;;;11.23;;
13866;SDS011;7003;46.982;15.248;2023-10-19T02:51:48;11.17;;;8.20;;
13866;SDS011;7003;46.982;15.248;2023-10-19T02:54:16;16.03;;;10.87;;
13866;SDS011;7003;46.982;15.248;2023-10-19T02:56:45;14.03;;;10.57;;
13866;SDS011;7003;46.982;15.248;2023-10-19T02:59:15;14.73;;;10.67;;
13866;SDS011;7003;46.982;15.248;2023-10-19T03:01:47;15.10;;;11.53;;
13866;SDS011;7003;46.982;15.248;2023-10-19T03:04:17;16.97;;;11.40;;
13866;SDS011;7003;46.982;15.248;2023-10-19T03:06:47;12.77;;;8.87;;
13866;SDS011;7003;46.982;15.248;2023-10-19T03:09:17;13.27;;;9.00;;
13866;SDS011;7003;46.982;15.248;2023-10-19T03:11:50;13.00;;;9.43;;
13866;SDS011;7003;46.982;15.248;2023-10-19T03:14:21;13.70;;;8.77;;
13866;SDS011;7003;46.982;15.248;2023-10-19T03:16:50;14.00;;;10.90;;
13866;SDS011;7003;46.982;15.248;2023-10-19T03:19:20;15.77;;;9.60;;
13866;SDS011;7003;46.982;15.248;2023-10-19T03:21:47;13.00;;;10.07;;
13866;SDS011;7003;46.982;15.248;2023-10-19T03:24:17;12.37;;;9.90;;
13866;SDS011;7003;46.982;15.248;2023-10-19T03:27:03;11.27;;;8.63;;
13866;SDS011;7003;46.982;15.248;2023-10-19T03:29:39;10.53;;;8.67;;
13866;SDS011;7003;46.982;15.248;2023-10-19T03:32:11;11.90;;;10.10;;
13866;SDS011;7003;46.982;15.248;2023-10-19T03:34:38;16.10;;;10.83;;
13866;SDS011;7003;46.982;15.248;2023-10-19T03:37:11;14.57;;;11.47;;
13866;SDS011;7003;46.982;15.248;2023-10-19T03:39:41;10.10;;;7.93;;
13866;SDS011;7003;46.982;15.248;2023-10-19T03:42:11;9.73;;;8.70;;
13866;SDS011;7003;46.982;15.248;2023-10-19T03:44:40;10.13;;;8.77;;
13866;SDS011;7003;46.982;15.248;2023-10-19T03:47:15;10.23;;;8.27;;
13866;SDS011;7003;46.982;15.248;2023-10-19T03:49:48;13.00;;;9.50;;
13866;SDS011;7003;46.982;15.248;2023-10-19T03:52:18;8.77;;;7.73;;
13866;SDS011;7003;46.982;15.248;2023-10-19T03:54:48;12.63;;;8.87;;
13866;SDS011;7003;46.982;15.248;2023-10-19T03:57:19;14.13;;;10.40;;
13866;SDS011;7003;46.982;15.248;2023-10-19T03:59:49;13.70;;;9.13;;
13866;SDS011;7003;46.982;15.248;2023-10-19T04:02:19;22.73;;;10.53;;
13866;SDS011;7003;46.982;15.248;2023-10-19T04:04:47;14.80;;;10.70;;
13866;SDS011;7003;46.982;15.248;2023-10-19T04:07:18;15.60;;;10.00;;
13866;SDS011;7003;46.982;15.248;2023-10-19T04:09:47;12.77;;;10.13;;
13866;SDS011;7003;46.982;15.248;2023-10-19T04:12:25;19.57;;;8.13;;
13866;SDS011;7003;46.982;15.248;2023-10-19T04:14:58;10.93;;;8.73;;
13866;SDS011;7003;46.982;15.248;2023-10-19T04:17:34;11.30;;;7.77;;
13866;SDS011;7003;46.982;15.248;2023-10-19T04:20:02;11.20;;;8.17;;
13866;SDS011;7003;46.982;15.248;2023-10-19T04:22:40;9.83;;;8.77;;
13866;SDS011;7003;46.982;15.248;2023-10-19T04:25:10;13.73;;;9.13;;
13866;SDS011;7003;46.982;15.248;2023-10-19T04:27:39;12.30;;;7.90;;
13866;SDS011;7003;46.982;15.248;2023-10-19T04:30:09;11.30;;;8.57;;
13866;SDS011;7003;46.982;15.248;2023-10-19T04:32:42;12.47;;;10.83;;
13866;SDS011;7003;46.982;15.248;2023-10-19T04:35:09;14.70;;;9.40;;
13866;SDS011;7003;46.982;15.248;2023-10-19T04:37:39;9.80;;;8.20;;
13866;SDS011;7003;46.982;15.248;2023-10-19T04:40:08;15.53;;;9.57;;
13866;SDS011;7003;46.982;15.248;2023-10-19T04:42:35;13.20;;;9.07;;
13866;SDS011;7003;46.982;15.248;2023-10-19T04:45:04;19.77;;;12.70;;
13866;SDS011;7003;46.982;15.248;2023-10-19T04:47:33;18.17;;;12.57;;
13866;SDS011;7003;46.982;15.248;2023-10-19T04:50:03;17.53;;;10.97;;
13866;SDS011;7003;46.982;15.248;2023-10-19T04:52:32;16.80;;;11.73;;
13866;SDS011;7003;46.982;15.248;2023-10-19T04:55:02;14.30;;;10.97;;
13866;SDS011;7003;46.982;15.248;2023-10-19T04:57:30;12.97;;;11.17;;
13866;SDS011;7003;46.982;15.248;2023-10-19T04:59:57;15.33;;;10.87;;
13866;SDS011;7003;46.982;15.248;2023-10-19T05:02:24;15.83;;;10.93;;
13866;SDS011;7003;46.982;15.248;2023-10-19T05:04:56;16.30;;;11.60;;
13866;SDS011;7003;46.982;15.248;2023-10-19T05:07:25;16.03;;;11.40;;
13866;SDS011;7003;46.982;15.248;2023-10-19T05:09:53;13.90;;;11.00;;
13866;SDS011;7003;46.982;15.248;2023-10-19T05:12:20;14.30;;;11.50;;
13866;SDS011;7003;46.982;15.248;2023-10-19T05:14:47;12.73;;;9.00;;
13866;SDS011;7003;46.982;15.248;2023-10-19T05:17:16;17.70;;;11.43;;
13866;SDS011;7003;46.982;15.248;2023-10-19T05:19:48;15.83;;;8.87;;
13866;SDS011;7003;46.982;15.248;2023-10-19T05:22:18;17.27;;;11.60;;
13866;SDS011;7003;46.982;15.248;2023-10-19T05:24:47;14.87;;;10.73;;
13866;SDS011;7003;46.982;15.248;2023-10-19T05:27:17;10.60;;;8.03;;
13866;SDS011;7003;46.982;15.248;2023-10-19T05:29:45;11.13;;;9.17;;
13866;SDS011;7003;46.982;15.248;2023-10-19T05:32:13;16.77;;;9.80;;
13866;SDS011;7003;46.982;15.248;2023-10-19T05:34:40;12.97;;;9.90;;
13866;SDS011;7003;46.982;15.248;2023-10-19T05:37:08;13.17;;;9.30;;
13866;SDS011;7003;46.982;15.248;2023-10-19T05:39:40;11.80;;;8.20;;
13866;SDS011;7003;46.982;15.248;2023-10-19T05:42:08;14.77;;;9.40;;
13866;SDS011;7003;46.982;15.248;2023-10-19T05:44:35;12.20;;;9.67;;
13866;SDS011;7003;46.982;15.248;2023-10-19T05:47:03;14.07;;;9.70;;
13866;SDS011;7003;46.982;15.248;2023-10-19T05:49:32;16.50;;;10.30;;
13866;SDS011;7003;46.982;15.248;2023-10-19T05:52:03;11.80;;;10.07;;
13866;SDS011;7003;46.982;15.248;2023-10-19T05:54:30;19.10;;;10.20;;
13866;SDS011;7003;46.982;15.248;2023-10-19T05:56:59;14.43;;;12.07;;
13866;SDS011;7003;46.982;15.248;2023-10-19T05:59:28;18.87;;;14.90;;
13866;SDS011;7003;46.982;15.248;2023-10-19T06:02:01;21.33;;;15.50;;
13866;SDS011;7003;46.982;15.248;2023-10-19T06:04:33;20.80;;;15.23;;
13866;SDS011;7003;46.982;15.248;2023-10-19T06:07:00;18.20;;;11.07;;
13866;SDS011;7003;46.982;15.248;2023-10-19T06:09:30;18.70;;;9.97;;
13866;SDS011;7003;46.982;15.248;2023-10-19T06:11:58;14.80;;;10.67;;
13866;SDS011;7003;46.982;15.248;2023-10-19T06:14:29;15.33;;;10.67;;
13866;SDS011;7003;46.982;15.248;2023-10-19T06:16:56;16.57;;;11.90;;
13866;SDS011;7003;46.982;15.248;2023-10-19T06:19:24;12.37;;;9.53;;
13866;SDS011;7003;46.982;15.248;2023-10-19T06:21:52;14.47;;;10.40;;
13866;SDS011;7003;46.982;15.248;2023-10-19T06:24:20;14.37;;;12.00;;
13866;SDS011;7003;46.982;15.248;2023-10-19T06:26:50;16.00;;;10.43;;
13866;SDS011;7003;46.982;15.248;2023-10-19T06:29:19;16.20;;;10.23;;
13866;SDS011;7003;46.982;15.248;2023-10-19T06:31:52;13.97;;;11.20;;
13866;SDS011;7003;46.982;15.248;2023-10-19T06:34:20;19.73;;;13.10;;
13866;SDS011;7003;46.982;15.248;2023-10-19T06:36:47;15.97;;;11.50;;
13866;SDS011;7003;46.982;15.248;2023-10-19T06:39:16;15.87;;;10.47;;
13866;SDS011;7003;46.982;15.248;2023-10-19T06:41:47;12.60;;;10.33;;
13866;SDS011;7003;46.982;15.248;2023-10-19T06:44:14;16.23;;;11.00;;
13866;SDS011;7003;46.982;15.248;2023-10-19T06:46:48;13.43;;;10.50;;
13866;SDS011;7003;46.982;15.248;2023-10-19T06:49:18;16.40;;;12.90;;
13866;SDS011;7003;46.982;15.248;2023-10-19T06:51:48;20.97;;;11.97;;
13866;SDS011;7003;46.982;15.248;2023-10-19T06:54:16;14.40;;;11.87;;
13866;SDS011;7003;46.982;15.248;2023-10-19T06:56:44;21.77;;;13.20;;
13866;SDS011;7003;46.982;15.248;2023-10-19T06:59:15;16.93;;;11.47;;
13866;SDS011;7003;46.982;15.248;2023-10-19T07:01:43;16.43;;;12.57;;
13866;SDS011;7003;46.982;15.248;2023-10-19T07:04:16;17.20;;;13.13;;
13866;SDS011;7003;46.982;15.248;2023-10-19T07:06:45;16.70;;;11.83;;
13866;SDS011;7003;46.982;15.248;2023-10-19T07:09:13;20.57;;;13.90;;
13866;SDS011;7003;46.982;15.248;2023-10-19T07:11:46;19.03;;;11.90;;
13866;SDS011;7003;46.982;15.248;2023-10-19T07:14:18;17.50;;;13.47;;
13866;SDS011;7003;46.982;15.248;2023-10-19T07:16:50;21.20;;;14.30;;
13866;SDS011;7003;46.982;15.248;2023-10-19T07:19:22;16.80;;;12.37;;
13866;SDS011;7003;46.982;15.248;2023-10-19T07:21:49;18.40;;;12.50;;
13866;SDS011;7003;46.982;15.248;2023-10-19T07:24:23;16.40;;;13.47;;
13866;SDS011;7003;46.982;15.248;2023-10-19T07:26:51;14.97;;;11.60;;
13866;SDS011;7003;46.982;15.248;2023-10-19T07:29:29;17.67;;;11.70;;
13866;SDS011;7003;46.982;15.248;2023-10-19T07:31:57;14.00;;;10.77;;
13866;SDS011;7003;46.982;15.248;2023-10-19T07:34:29;19.60;;;12.73;;
13866;SDS011;7003;46.982;15.248;2023-10-19T07:37:01;13.48;;;10.35;;
13866;SDS011;7003;46.982;15.248;2023-10-19T07:39:29;13.73;;;10.55;;
13866;SDS011;7003;46.982;15.248;2023-10-19T07:42:02;16.45;;;10.32;;
13866;SDS011;7003;46.982;15.248;2023-10-19T07:44:32;11.27;;;9.80;;
13866;SDS011;7003;46.982;15.248;2023-10-19T07:47:00;12.48;;;10.40;;
13866;SDS011;7003;46.982;15.248;2023-10-19T07:49:29;15.52;;;8.70;;
13866;SDS011;7003;46.982;15.248;2023-10-19T07:51:59;9.77;;;8.85;;
13866;SDS011;7003;46.982;15.248;2023-10-19T07:54:29;12.80;;;9.13;;
13866;SDS011;7003;46.982;15.248;2023-10-19T07:56:57;13.52;;;8.48;;
13866;SDS011;7003;46.982;15.248;2023-10-19T07:59:29;11.93;;;8.75;;
13866;SDS011;7003;46.982;15.248;2023-10-19T08:01:56;13.13;;;8.65;;
13866;SDS011;7003;46.982;15.248;2023-10-19T08:04:27;15.05;;;9.13;;
13866;SDS011;7003;46.982;15.248;2023-10-19T08:06:56;9.75;;;8.27;;
13866;SDS011;7003;46.982;15.248;2023-10-19T08:09:26;13.93;;;8.95;;
13866;SDS011;7003;46.982;15.248;2023-10-19T08:11:57;17.75;;;11.75;;
13866;SDS011;7003;46.982;15.248;2023-10-19T08:14:29;13.40;;;9.32;;
13866;SDS011;7003;46.982;15.248;2023-10-19T08:16:56;12.98;;;9.45;;
13866;SDS011;7003;46.982;15.248;2023-10-19T08:19:27;11.63;;;9.68;;
13866;SDS011;7003;46.982;15.248;2023-10-19T08:21:58;11.10;;;9.07;;
13866;SDS011;7003;46.982;15.248;2023-10-19T08:24:28;11.27;;;7.75;;
13866;SDS011;7003;46.982;15.248;2023-10-19T08:26:58;8.73;;;7.35;;
13866;SDS011;7003;46.982;15.248;2023-10-19T08:29:28;10.32;;;7.38;;
13866;SDS011;7003;46.982;15.248;2023-10-19T08:31:56;9.18;;;7.53;;
13866;SDS011;7003;46.982;15.248;2023-10-19T08:34:24;7.70;;;6.97;;
13866;SDS011;7003;46.982;15.248;2023-10-19T08:36:56;11.23;;;7.75;;
13866;SDS011;7003;46.982;15.248;2023-10-19T08:39:24;10.82;;;8.43;;
13866;SDS011;7003;46.982;15.248;2023-10-19T08:41:55;10.68;;;8.02;;
13866;SDS011;7003;46.982;15.248;2023-10-19T08:44:24;8.93;;;6.63;;
13866;SDS011;7003;46.982;15.248;2023-10-19T08:46:54;9.02;;;7.40;;
13866;SDS011;7003;46.982;15.248;2023-10-19T08:49:22;12.65;;;10.32;;
13866;SDS011;7003;46.982;15.248;2023-10-19T08:51:52;10.55;;;9.10;;
13866;SDS011;7003;46.982;15.248;2023-10-19T08:54:22;10.98;;;7.97;;
13866;SDS011;7003;46.982;15.248;2023-10-19T08:56:51;10.07;;;8.20;;
13866;SDS011;7003;46.982;15.248;2023-10-19T08:59:21;8.57;;;7.75;;
13866;SDS011;7003;46.982;15.248;2023-10-19T09:01:49;11.18;;;8.10;;
13866;SDS011;7003;46.982;15.248;2023-10-19T09:04:16;8.02;;;6.78;;
13866;SDS011;7003;46.982;15.248;2023-10-19T09:06:43;10.10;;;8.13;;
13866;SDS011;7003;46.982;15.248;2023-10-19T09:09:11;10.73;;;8.05;;
13866;SDS011;7003;46.982;15.248;2023-10-19T09:11:43;11.07;;;8.77;;
13866;SDS011;7003;46.982;15.248;2023-10-19T09:14:12;8.52;;;7.63;;
13866;SDS011;7003;46.982;15.248;2023-10-19T09:16:52;11.75;;;6.82;;
13866;SDS011;7003;46.982;15.248;2023-10-19T09:19:28;12.68;;;8.07;;
13866;SDS011;7003;46.982;15.248;2023-10-19T09:22:05;13.13;;;9.80;;
13866;SDS011;7003;46.982;15.248;2023-10-19T09:24:42;9.23;;;7.63;;
13866;SDS011;7003;46.982;15.248;2023-10-19T09:27:16;11.88;;;7.80;;
13866;SDS011;7003;46.982;15.248;2023-10-19T09:29:44;15.20;;;8.18;;
13866;SDS011;7003;46.982;15.248;2023-10-19T09:32:12;10.02;;;7.90;;
13866;SDS011;7003;46.982;15.248;2023-10-19T09:34:42;9.63;;;7.93;;
13866;SDS011;7003;46.982;15.248;2023-10-19T09:37:16;9.75;;;7.80;;
13866;SDS011;7003;46.982;15.248;2023-10-19T09:39:44;13.05;;;8.57;;
13866;SDS011;7003;46.982;15.248;2023-10-19T09:42:12;11.80;;;9.25;;
13866;SDS011;7003;46.982;15.248;2023-10-19T09:44:43;9.73;;;6.80;;
13866;SDS011;7003;46.982;15.248;2023-10-19T09:47:15;12.25;;;8.10;;
13866;SDS011;7003;46.982;15.248;2023-10-19T09:49:52;11.13;;;7.03;;
13866;SDS011;7003;46.982;15.248;2023-10-19T09:52:19;8.20;;;6.55;;
13866;SDS011;7003;46.982;15.248;2023-10-19T09:54:50;10.05;;;7.95;;
13866;SDS011;7003;46.982;15.248;2023-10-19T09:57:28;12.68;;;7.68;;
13866;SDS011;7003;46.982;15.248;2023-10-19T10:00:03;6.60;;;6.00;;
13866;SDS011;7003;46.982;15.248;2023-10-19T10:02:38;10.13;;;7.93;;
13866;SDS011;7003;46.982;15.248;2023-10-19T10:11:18;7.93;;;6.90;;
13866;SDS011;7003;46.982;15.248;2023-10-19T10:13:49;8.75;;;7.28;;
13866;SDS011;7003;46.982;15.248;2023-10-19T10:16:18;9.25;;;7.57;;
13866;SDS011;7003;46.982;15.248;2023-10-19T10:18:49;8.27;;;6.03;;
13866;SDS011;7003;46.982;15.248;2023-10-19T10:21:17;7.90;;;7.20;;
13866;SDS011;7003;46.982;15.248;2023-10-19T10:23:48;7.95;;;6.60;;
13866;SDS011;7003;46.982;15.248;2023-10-19T10:26:18;9.75;;;7.35;;
13866;SDS011;7003;46.982;15.248;2023-10-19T10:31:42;9.60;;;8.63;;
13866;SDS011;7003;46.982;15.248;2023-10-19T10:34:11;10.55;;;8.02;;
13866;SDS011;7003;46.982;15.248;2023-10-19T10:37:02;10.63;;;7.38;;
13866;SDS011;7003;46.982;15.248;2023-10-19T10:39:34;9.98;;;6.25;;
13866;SDS011;7003;46.982;15.248;2023-10-19T10:42:03;9.18;;;7.45;;
13866;SDS011;7003;46.982;15.248;2023-10-19T10:44:40;10.32;;;8.15;;
13866;SDS011;7003;46.982;15.248;2023-10-19T10:47:11;9.43;;;7.45;;
13866;SDS011;7003;46.982;15.248;2023-10-19T10:49:46;9.52;;;6.20;;
13866;SDS011;7003;46.982;15.248;2023-10-19T10:52:23;6.63;;;5.95;;
13866;SDS011;7003;46.982;15.248;2023-10-19T10:54:54;8.40;;;6.65;;
13866;SDS011;7003;46.982;15.248;2023-10-19T10:57:32;9.93;;;6.05;;
13866;SDS011;7003;46.982;15.248;2023-10-19T11:00:03;8.40;;;7.57;;
13866;SDS011;7003;46.982;15.248;2023-10-19T11:02:35;14.45;;;8.27;;
13866;SDS011;7003;46.982;15.248;2023-10-19T11:05:08;7.63;;;5.45;;
13866;SDS011;7003;46.982;15.248;2023-10-19T11:07:40;9.00;;;7.47;;
13866;SDS011;7003;46.982;15.248;2023-10-19T11:10:28;10.05;;;6.63;;
13866;SDS011;7003;46.982;15.248;2023-10-19T11:13:00;9.23;;;6.90;;
13866;SDS011;7003;46.982;15.248;2023-10-19T11:15:30;10.45;;;7.65;;
13866;SDS011;7003;46.982;15.248;2023-10-19T11:17:58;9.70;;;7.45;;
13866;SDS011;7003;46.982;15.248;2023-10-19T11:20:27;11.23;;;8.18;;
13866;SDS011;7003;46.982;15.248;2023-10-19T11:22:57;9.10;;;7.53;;
13866;SDS011;7003;46.982;15.248;2023-10-19T11:25:27;8.50;;;7.28;;
13866;SDS011;7003;46.982;15.248;2023-10-19T11:27:56;8.10;;;6.90;;
13866;SDS011;7003;46.982;15.248;2023-10-19T11:30:25;12.25;;;8.50;;
13866;SDS011;7003;46.982;15.248;2023-10-19T11:32:55;9.32;;;7.43;;
13866;SDS011;7003;46.982;15.248;2023-10-19T11:35:24;9.88;;;8.00;;
13866;SDS011;7003;46.982;15.248;2023-10-19T11:37:54;16.33;;;6.70;;
13866;SDS011;7003;46.982;15.248;2023-10-19T11:40:25;7.95;;;7.07;;
13866;SDS011;7003;46.982;15.248;2023-10-19T11:42:57;10.55;;;6.25;;
13866;SDS011;7003;46.982;15.248;2023-10-19T11:45:29;8.27;;;5.60;;
13866;SDS011;7003;46.982;15.248;2023-10-19T11:47:59;9.38;;;6.20;;
13866;SDS011;7003;46.982;15.248;2023-10-19T11:50:27;7.07;;;5.80;;
13866;SDS011;7003;46.982;15.248;2023-10-19T11:52:57;6.97;;;6.18;;
13866;SDS011;7003;46.982;15.248;2023-10-19T11:55:25;9.00;;;6.75;;
13866;SDS011;7003;46.982;15.248;2023-10-19T11:57:52;6.10;;;5.35;;
13866;SDS011;7003;46.982;15.248;2023-10-19T12:00:19;7.00;;;5.20;;
13866;SDS011;7003;46.982;15.248;2023-10-19T12:02:50;7.30;;;6.18;;
13866;SDS011;7003;46.982;15.248;2023-10-19T12:05:20;8.00;;;6.22;;
13866;SDS011;7003;46.982;15.248;2023-10-19T12:07:49;7.50;;;6.25;;
13866;SDS011;7003;46.982;15.248;2023-10-19T12:10:17;7.57;;;6.30;;
13866;SDS011;7003;46.982;15.248;2023-10-19T12:12:48;14.15;;;7.57;;
13866;SDS011;7003;46.982;15.248;2023-10-19T12:15:16;9.40;;;7.63;;
13866;SDS011;7003;46.982;15.248;2023-10-19T12:17:43;8.93;;;6.50;;
13866;SDS011;7003;46.982;15.248;2023-10-19T12:20:11;9.40;;;6.70;;
13866;SDS011;7003;46.982;15.248;2023-10-19T12:22:41;7.32;;;5.97;;
13866;SDS011;7003;46.982;15.248;2023-10-19T12:25:09;7.80;;;6.63;;
13866;SDS011;7003;46.982;15.248;2023-10-19T12:27:40;13.80;;;9.38;;
13866;SDS011;7003;46.982;15.248;2023-10-19T12:30:08;6.22;;;5.45;;
13866;SDS011;7003;46.982;15.248;2023-10-19T12:32:45;15.45;;;10.20;;
13866;SDS011;7003;46.982;15.248;2023-10-19T12:35:15;9.80;;;7.78;;
13866;SDS011;7003;46.982;15.248;2023-10-19T12:37:46;9.32;;;6.13;;
13866;SDS011;7003;46.982;15.248;2023-10-19T12:40:17;6.78;;;5.82;;
13866;SDS011;7003;46.982;15.248;2023-10-19T12:43:03;9.13;;;5.55;;
13866;SDS011;7003;46.982;15.248;2023-10-19T12:45:33;5.18;;;4.68;;
13866;SDS011;7003;46.982;15.248;2023-10-19T12:48:05;8.15;;;6.25;;
13866;SDS011;7003;46.982;15.248;2023-10-19T12:50:36;11.88;;;7.55;;
13866;SDS011;7003;46.982;15.248;2023-10-19T12:53:05;9.25;;;8.30;;
13866;SDS011;7003;46.982;15.248;2023-10-19T12:55:33;8.68;;;6.40;;
13866;SDS011;7003;46.982;15.248;2023-10-19T12:58:03;8.57;;;6.70;;
13866;SDS011;7003;46.982;15.248;2023-10-19T13:00:36;10.15;;;7.68;;
13866;SDS011;7003;46.982;15.248;2023-10-19T13:03:09;7.07;;;6.15;;
13866;SDS011;7003;46.982;15.248;2023-10-19T13:05:41;9.52;;;5.55;;
13866;SDS011;7003;46.982;15.248;2023-10-19T13:08:13;12.23;;;7.50;;
13866;SDS011;7003;46.982;15.248;2023-10-19T13:10:41;10.95;;;7.72;;
13866;SDS011;7003;46.982;15.248;2023-10-19T13:13:13;8.57;;;6.20;;
13866;SDS011;7003;46.982;15.248;2023-10-19T13:15:45;9.73;;;6.03;;
13866;SDS011;7003;46.982;15.248;2023-10-19T13:18:13;10.02;;;6.60;;
13866;SDS011;7003;46.982;15.248;2023-10-19T13:20:46;8.20;;;6.55;;
13866;SDS011;7003;46.982;15.248;2023-10-19T13:23:15;8.00;;;6.05;;
13866;SDS011;7003;46.982;15.248;2023-10-19T13:25:47;5.45;;;4.95;;
13866;SDS011;7003;46.982;15.248;2023-10-19T13:28:21;11.10;;;6.15;;
13866;SDS011;7003;46.982;15.248;2023-10-19T13:30:49;9.23;;;6.63;;
13866;SDS011;7003;46.982;15.248;2023-10-19T13:33:19;7.72;;;6.70;;
13866;SDS011;7003;46.982;15.248;2023-10-19T13:35:48;6.50;;;5.10;;
13866;SDS011;7003;46.982;15.248;2023-10-19T13:38:17;8.13;;;6.00;;
13866;SDS011;7003;46.982;15.248;2023-10-19T13:40:46;6.70;;;5.47;;
13866;SDS011;7003;46.982;15.248;2023-10-19T13:43:15;7.22;;;6.28;;
13866;SDS011;7003;46.982;15.248;2023-10-19T13:45:47;7.05;;;5.65;;
13866;SDS011;7003;46.982;15.248;2023-10-19T13:48:15;8.10;;;6.40;;
13866;SDS011;7003;46.982;15.248;2023-10-19T13:50:44;11.48;;;6.18;;
13866;SDS011;7003;46.982;15.248;2023-10-19T13:53:18;9.32;;;6.47;;
13866;SDS011;7003;46.982;15.248;2023-10-19T13:55:46;8.23;;;6.10;;
13866;SDS011;7003;46.982;15.248;2023-10-19T13:58:14;8.63;;;6.57;;
13866;SDS011;7003;46.982;15.248;2023-10-19T14:00:42;8.10;;;6.88;;
13866;SDS011;7003;46.982;15.248;2023-10-19T14:03:10;9.05;;;7.10;;
13866;SDS011;7003;46.982;15.248;2023-10-19T14:05:42;6.40;;;5.78;;
13866;SDS011;7003;46.982;15.248;2023-10-19T14:08:13;9.18;;;6.60;;
13866;SDS011;7003;46.982;15.248;2023-10-19T14:10:43;8.30;;;6.15;;
13866;SDS011;7003;46.982;15.248;2023-10-19T14:13:10;7.97;;;6.47;;
13866;SDS011;7003;46.982;15.248;2023-10-19T14:15:40;11.45;;;6.38;;
13866;SDS011;7003;46.982;15.248;2023-10-19T14:18:08;8.40;;;6.63;;
13866;SDS011;7003;46.982;15.248;2023-10-19T14:20:37;7.65;;;5.97;;
13866;SDS011;7003;46.982;15.248;2023-10-19T14:23:08;19.13;;;11.25;;
13866;SDS011;7003;46.982;15.248;2023-10-19T14:25:36;9.93;;;6.75;;
13866;SDS011;7003;46.982;15.248;2023-10-19T14:28:09;6.90;;;6.10;;
13866;SDS011;7003;46.982;15.248;2023-10-19T14:30:37;7.82;;;5.95;;
13866;SDS011;7003;46.982;15.248;2023-10-19T14:33:05;5.82;;;4.50;;
13866;SDS011;7003;46.982;15.248;2023-10-19T14:35:37;5.75;;;5.00;;
13866;SDS011;7003;46.982;15.248;2023-10-19T14:38:07;7.60;;;6.22;;
13866;SDS011;7003;46.982;15.248;2023-10-19T14:40:37;6.13;;;5.25;;
13866;SDS011;7003;46.982;15.248;2023-10-19T14:43:10;5.65;;;4.18;;
13866;SDS011;7003;46.982;15.248;2023-10-19T14:45:39;4.78;;;3.72;;
13866;SDS011;7003;46.982;15.248;2023-10-19T14:48:07;4.50;;;4.10;;
13866;SDS011;7003;46.982;15.248;2023-10-19T14:50:36;3.90;;;3.60;;
13866;SDS011;7003;46.982;15.248;2023-10-19T14:53:03;5.32;;;4.72;;
13866;SDS011;7003;46.982;15.248;2023-10-19T14:55:31;5.93;;;4.13;;
13866;SDS011;7003;46.982;15.248;2023-10-19T14:57:58;4.15;;;3.42;;
13866;SDS011;7003;46.982;15.248;2023-10-19T15:00:28;4.90;;;3.67;;
13866;SDS011;7003;46.982;15.248;2023-10-19T15:03:00;3.72;;;3.25;;